Details From CYPR - Prince Rupert
To CYZP - Sandspit
Flight Number -
Tags generated
Created
Modified
Stats Distance 79 nm / 146 km
Max Altitude 8,900 ft / 2,713 m
Waypoints 4
Social Downloads 1
Likes 0
Share VATSIM

Download

Looking for another format? Having issues loading an existing format? Contact us
Advertisement - Login to hide

Notes

Basic altitude profile: - Ascent Rate: 2500ft/min - Ascent Speed: 250kts - Cruise Altitude: 35000ft - Cruise Speed: 420kts - Descent Rate: 1500ft/min - Descent Speed: 250kts Options: - Use NATs: yes - Use PACOTS: yes - Use low airways: yes - Use high airways: no

Route

CYPR NILLA V309 YZP CYZP

ID Type Via Altitude Latitude Longitude Leg Dist Tot Dist Heading (true) Name
O CYPR APT - 0 ft / 0 m 54.28611˚ -130.44472˚ - 0 nm - Prince Rupert
NILLA FIX - 8,900 ft / 2,713 m 53.79000˚ -131.08333˚ 37 nm 37 nm 217° / 217° -
YZP VOR V309 (AWY-LO) 3,500 ft / 1,067 m 53.25217˚ -131.80708˚ 41 nm 78 nm 219° / 218° SANDSPIT VOR-DME
O CYZP APT - 0 ft / 0 m 53.25430˚ -131.81375˚ 0 nm 78 nm 298° / 298° Sandspit

Altitude Profile

Advertisement - Login to hide

CYPR

Details ICAO CYPR (YPR)
Name Prince Rupert
Region Canada
Timezone America/Vancouver (UTC-8.0)
Stats Elevation 116 ft / 35 m (AMSL)
Location 54.286114° -130.444717°
Runways 1
Magnetic Variation 18.258° E

METAR

CYPR 142117Z AUTO 16007KT 6SM -RA BR BKN025 OVC033 07/06 A3009 RMK SLP193

Decode

TAF

TAF CYPR 141838Z 1419/1507 14015G30KT 6SM -RA BR SCT015 OVC030 TEMPO 1419/1422 2SM -RA BR BKN008 OVC015 FM142200 19012KT P6SM BKN030 TEMPO 1422/1507 5SM -SHRA BR BKN015 BECMG 1501/1503 30008KT RMK FCST BASED ON AUTO OBS. NXT FCST BY 150100Z

Decode

Departure Runways

ID Width Length Bearing (true) Bearing (mag) Surface Threshold Offset Overrun Length
13 200 ft / 61 m 6,043 ft / 1,842 m 150.73° 132.47° Asphalt 0 ft / 0 m 0 ft / 0 m
31 200 ft / 61 m 6,043 ft / 1,842 m 330.74° 312.48° Asphalt 0 ft / 0 m 0 ft / 0 m

CYZP

Details ICAO CYZP (YZP)
Name Sandspit
Region Canada
Timezone America/Vancouver (UTC-8.0)
Stats Elevation 20 ft / 6 m (AMSL)
Location 53.254303° -131.813752°
Runways 1
Magnetic Variation 17.993° E

METAR

CYZP 142100Z AUTO 26012KT 9SM FEW034 09/07 A3013 RMK SLP205

Decode

TAF

TAF CYZP 141838Z 1419/1507 24008KT P6SM SCT015 OVC040 TEMPO 1419/1421 5SM -RA BR OVC015 FM142100 24008KT P6SM BKN040 TEMPO 1421/1507 6SM -RA BR BKN020 RMK FCST BASED ON AUTO OBS. NXT FCST BY 150100Z

Decode

Destination Runways

ID Width Length Bearing (true) Bearing (mag) Surface Threshold Offset Overrun Length
12 151 ft / 46 m 5,125 ft / 1,562 m 144.44° 126.45° Asphalt 0 ft / 0 m 0 ft / 0 m
30 151 ft / 46 m 5,125 ft / 1,562 m 324.45° 306.46° Asphalt 0 ft / 0 m 0 ft / 0 m

Approach Navaids

Runway Type Ident Frequency Range Bearing (true) Bearing (mag) Slope Elevation
12 Localiser IZP 109.50 MHz 18 nm / 33 km 144.57° 126.58° - 10 ft / 3 m (AMSL)
12 Glidescope IZP 109.50 MHz 10 nm / 19 km 144.45° 126.46° 3.00° 9 ft / 3 m (AMSL)